IBE132 SEGU-LEMD
Flight info
| Callsign | IBE132 |
|---|---|
| Flight time | N/A |
| Altitude | 34000 |
| Route | REGAP2 PAMIS UP533 QIT UP778 BOKAN/N0485F350 UP533 BNS UW50 PBL UP533 IVROV/N0479F370 UP533 ITEGO DCT PPR DCT BNJEE/M082F370 DCT 26N050W 3430N04000W/M082F390 4130N03000W 4330N02000W DCT MUDOS/N0472F390 DCT STG DCT DESAT/N0472F400 N733 ZMR |
| Aircraft | A332/H-SDE3GHIJ2J3J5M1RVWXY/LB2D1 |
Departure
| Time | 2026-04-29 05:00 |
|---|---|
| Airport | José Joaquín de Olmedo International Airport (SEGU) |
Arrival
| Time | N/A |
|---|---|
| Airport | Adolfo Suárez Madrid–Barajas Airport (LEMD) |
| Time | Latitude | Longitude | Altitude | Speed | Heading |
|---|---|---|---|---|---|
| 2026-04-29 04:45 | -2.14834 | -79.88304 | 32 ft | 0 kts | 300° |
| 2026-04-29 04:48 | -2.14842 | -79.88291 | 31 ft | 3 kts | 309° |
| 2026-04-29 04:48 | -2.14857 | -79.88276 | 31 ft | 3 kts | 328° |
| 2026-04-29 04:48 | -2.14875 | -79.88267 | 32 ft | 3 kts | 347° |
| 2026-04-29 04:49 | -2.14895 | -79.88265 | 32 ft | 3 kts | 9° |
| 2026-04-29 04:49 | -2.14913 | -79.88270 | 31 ft | 1 kts | 30° |
| 2026-04-29 04:49 | -2.14916 | -79.88272 | 30 ft | 0 kts | 30° |
| 2026-04-29 04:53 | -2.14907 | -79.88267 | 32 ft | 3 kts | 30° |
| 2026-04-29 04:53 | -2.14882 | -79.88253 | 32 ft | 6 kts | 30° |
| 2026-04-29 04:53 | -2.14838 | -79.88228 | 32 ft | 9 kts | 30° |
| 2026-04-29 04:54 | -2.14795 | -79.88198 | 32 ft | 7 kts | 47° |
| 2026-04-29 04:54 | -2.14790 | -79.88158 | 32 ft | 5 kts | 102° |
| 2026-04-29 04:54 | -2.14807 | -79.88123 | 32 ft | 6 kts | 118° |
| 2026-04-29 04:54 | -2.14827 | -79.88086 | 32 ft | 6 kts | 119° |
| 2026-04-29 04:55 | -2.14834 | -79.88049 | 32 ft | 5 kts | 80° |
| 2026-04-29 04:55 | -2.14813 | -79.88023 | 32 ft | 5 kts | 40° |
| 2026-04-29 04:55 | -2.14781 | -79.88002 | 32 ft | 6 kts | 32° |
| 2026-04-29 04:55 | -2.14748 | -79.87982 | 32 ft | 6 kts | 30° |
| 2026-04-29 04:56 | -2.14715 | -79.87964 | 32 ft | 5 kts | 28° |
| 2026-04-29 04:56 | -2.14683 | -79.87943 | 32 ft | 5 kts | 39° |
| 2026-04-29 04:56 | -2.14662 | -79.87915 | 32 ft | 5 kts | 64° |
| 2026-04-29 04:56 | -2.14655 | -79.87895 | 32 ft | 0 kts | 70° |
| 2026-04-29 04:58 | -2.14653 | -79.87890 | 32 ft | 2 kts | 70° |
| 2026-04-29 04:58 | -2.14644 | -79.87863 | 32 ft | 7 kts | 71° |
| 2026-04-29 04:58 | -2.14633 | -79.87809 | 32 ft | 9 kts | 88° |
| 2026-04-29 04:58 | -2.14663 | -79.87762 | 31 ft | 8 kts | 155° |
| 2026-04-29 04:59 | -2.14712 | -79.87773 | 31 ft | 7 kts | 209° |
| 2026-04-29 04:59 | -2.14762 | -79.87801 | 31 ft | 12 kts | 210° |
| 2026-04-29 04:59 | -2.14956 | -79.87915 | 33 ft | 59 kts | 210° |
| 2026-04-29 04:59 | -2.15486 | -79.88218 | 30 ft | 114 kts | 210° |
| 2026-04-29 05:00 | -2.16318 | -79.88697 | 40 ft | 161 kts | 210° |
| 2026-04-29 05:00 | -2.17303 | -79.89275 | 538 ft | 166 kts | 210° |
| 2026-04-29 05:00 | -2.18291 | -79.89851 | 1187 ft | 166 kts | 212° |
| 2026-04-29 05:00 | -2.19304 | -79.90427 | 1809 ft | 167 kts | 211° |
| 2026-04-29 05:01 | -2.20357 | -79.90845 | 2131 ft | 167 kts | 186° |
| 2026-04-29 05:01 | -2.21457 | -79.90474 | 2219 ft | 180 kts | 134° |
| 2026-04-29 05:01 | -2.21900 | -79.89268 | 2237 ft | 198 kts | 87° |
| 2026-04-29 05:01 | -2.21470 | -79.87933 | 2376 ft | 209 kts | 58° |
| 2026-04-29 05:02 | -2.20484 | -79.86809 | 2418 ft | 223 kts | 42° |
| 2026-04-29 05:02 | -2.19267 | -79.85779 | 2509 ft | 237 kts | 39° |
| 2026-04-29 05:02 | -2.17949 | -79.84700 | 2629 ft | 252 kts | 39° |
| 2026-04-29 05:02 | -2.16590 | -79.83517 | 2789 ft | 265 kts | 44° |
| 2026-04-29 05:03 | -2.15227 | -79.82220 | 3059 ft | 273 kts | 44° |
| 2026-04-29 05:03 | -2.13813 | -79.80935 | 3435 ft | 276 kts | 41° |
| 2026-04-29 05:03 | -2.12398 | -79.79631 | 3845 ft | 277 kts | 44° |
| 2026-04-29 05:03 | -2.11017 | -79.78340 | 4425 ft | 272 kts | 43° |
| 2026-04-29 05:04 | -2.09639 | -79.77052 | 4945 ft | 271 kts | 43° |
| 2026-04-29 05:04 | -2.08261 | -79.75764 | 5384 ft | 272 kts | 44° |
| 2026-04-29 05:04 | -2.06874 | -79.74467 | 5788 ft | 274 kts | 43° |
| 2026-04-29 05:04 | -2.05475 | -79.73159 | 6214 ft | 276 kts | 43° |
| 2026-04-29 05:05 | -2.03960 | -79.71979 | 6637 ft | 278 kts | 33° |
| 2026-04-29 05:05 | -2.02294 | -79.70981 | 7018 ft | 281 kts | 30° |
| 2026-04-29 05:05 | -2.00588 | -79.70017 | 7419 ft | 282 kts | 30° |
| 2026-04-29 05:05 | -1.98837 | -79.69111 | 7830 ft | 284 kts | 24° |
| 2026-04-29 05:06 | -1.96974 | -79.68421 | 8233 ft | 287 kts | 18° |
| 2026-04-29 05:06 | -1.95054 | -79.67847 | 8659 ft | 289 kts | 17° |
| 2026-04-29 05:06 | -1.93116 | -79.67291 | 9083 ft | 291 kts | 17° |
| 2026-04-29 05:06 | -1.91164 | -79.66729 | 9500 ft | 293 kts | 18° |
| 2026-04-29 05:07 | -1.89375 | -79.65778 | 9878 ft | 295 kts | 44° |
| 2026-04-29 05:07 | -1.87952 | -79.64279 | 10152 ft | 302 kts | 46° |
| 2026-04-29 05:07 | -1.86949 | -79.63294 | 10245 ft | 309 kts | 42° |
| 2026-04-29 05:07 | -1.85266 | -79.61896 | 10409 ft | 320 kts | 37° |
| 2026-04-29 05:08 | -1.83420 | -79.60592 | 10557 ft | 331 kts | 34° |
| 2026-04-29 05:08 | -1.81453 | -79.59336 | 10715 ft | 341 kts | 32° |
| 2026-04-29 05:08 | -1.79392 | -79.58092 | 10856 ft | 350 kts | 31° |
| 2026-04-29 05:08 | -1.77265 | -79.56846 | 11016 ft | 359 kts | 31° |
| 2026-04-29 05:09 | -1.75078 | -79.55585 | 11146 ft | 367 kts | 30° |
| 2026-04-29 05:09 | -1.72841 | -79.54304 | 11261 ft | 375 kts | 30° |
| 2026-04-29 05:09 | -1.70557 | -79.53003 | 11462 ft | 380 kts | 30° |
| 2026-04-29 05:09 | -1.68251 | -79.51692 | 11726 ft | 382 kts | 30° |
| 2026-04-29 05:10 | -1.65938 | -79.50378 | 12010 ft | 383 kts | 30° |
| 2026-04-29 05:10 | -1.63615 | -79.49060 | 12297 ft | 384 kts | 30° |
| 2026-04-29 05:10 | -1.61288 | -79.47739 | 12586 ft | 386 kts | 31° |
| 2026-04-29 05:10 | -1.58955 | -79.46408 | 12874 ft | 387 kts | 31° |
| 2026-04-29 05:11 | -1.56648 | -79.45073 | 13158 ft | 388 kts | 31° |
| 2026-04-29 05:11 | -1.54309 | -79.43715 | 13441 ft | 389 kts | 31° |
| 2026-04-29 05:11 | -1.51963 | -79.42351 | 13763 ft | 391 kts | 31° |
| 2026-04-29 05:11 | -1.49606 | -79.40981 | 13988 ft | 393 kts | 31° |
| 2026-04-29 05:12 | -1.47232 | -79.39603 | 14175 ft | 396 kts | 31° |
| 2026-04-29 05:12 | -1.44849 | -79.38219 | 14413 ft | 397 kts | 31° |
| 2026-04-29 05:12 | -1.42461 | -79.36833 | 14659 ft | 397 kts | 31° |
| 2026-04-29 05:12 | -1.40072 | -79.35445 | 14905 ft | 398 kts | 31° |
| 2026-04-29 05:13 | -1.37670 | -79.34051 | 15131 ft | 400 kts | 31° |
| 2026-04-29 05:13 | -1.35266 | -79.32655 | 15363 ft | 400 kts | 31° |
| 2026-04-29 05:13 | -1.32853 | -79.31255 | 15594 ft | 401 kts | 31° |
| 2026-04-29 05:13 | -1.30435 | -79.29851 | 15821 ft | 402 kts | 31° |
| 2026-04-29 05:14 | -1.28011 | -79.28444 | 16062 ft | 403 kts | 31° |
| 2026-04-29 05:14 | -1.25581 | -79.27033 | 16350 ft | 404 kts | 31° |
| 2026-04-29 05:14 | -1.23148 | -79.25620 | 16565 ft | 405 kts | 31° |
| 2026-04-29 05:14 | -1.20703 | -79.24201 | 16772 ft | 407 kts | 31° |
| 2026-04-29 05:15 | -1.18251 | -79.22778 | 16977 ft | 408 kts | 31° |
| 2026-04-29 05:15 | -1.15795 | -79.21352 | 17196 ft | 409 kts | 31° |
| 2026-04-29 05:15 | -1.13331 | -79.19922 | 17376 ft | 410 kts | 31° |
| 2026-04-29 05:15 | -1.10861 | -79.18488 | 17575 ft | 411 kts | 31° |
| 2026-04-29 05:16 | -1.08384 | -79.17051 | 17791 ft | 412 kts | 31° |
| 2026-04-29 05:16 | -1.05934 | -79.15629 | 17955 ft | 413 kts | 31° |
| 2026-04-29 05:16 | -1.03443 | -79.14183 | 18159 ft | 414 kts | 31° |
| 2026-04-29 05:16 | -1.00948 | -79.12735 | 18400 ft | 415 kts | 31° |
| 2026-04-29 05:17 | -0.98448 | -79.11284 | 18546 ft | 416 kts | 31° |
| 2026-04-29 05:17 | -0.95942 | -79.09829 | 18690 ft | 417 kts | 31° |
| 2026-04-29 05:17 | -0.93423 | -79.08367 | 18817 ft | 419 kts | 31° |
| 2026-04-29 05:17 | -0.90899 | -79.06902 | 18966 ft | 420 kts | 31° |
| 2026-04-29 05:18 | -0.88371 | -79.05435 | 19123 ft | 421 kts | 31° |
| 2026-04-29 05:18 | -0.85832 | -79.03961 | 19267 ft | 422 kts | 31° |
| 2026-04-29 05:18 | -0.83295 | -79.02488 | 19399 ft | 423 kts | 31° |
| 2026-04-29 05:18 | -0.80750 | -79.01006 | 19580 ft | 423 kts | 32° |
| 2026-04-29 05:19 | -0.78239 | -78.99466 | 19710 ft | 424 kts | 33° |
| 2026-04-29 05:19 | -0.75788 | -78.97893 | 19889 ft | 425 kts | 34° |
| 2026-04-29 05:19 | -0.73314 | -78.96274 | 19976 ft | 425 kts | 34° |
| 2026-04-29 05:19 | -0.70836 | -78.94641 | 20062 ft | 427 kts | 34° |
| 2026-04-29 05:20 | -0.68349 | -78.93006 | 20206 ft | 429 kts | 34° |
| 2026-04-29 05:20 | -0.65852 | -78.91369 | 20346 ft | 429 kts | 34° |
| 2026-04-29 05:20 | -0.63348 | -78.89737 | 20467 ft | 430 kts | 34° |
| 2026-04-29 05:20 | -0.60837 | -78.88102 | 20575 ft | 431 kts | 34° |
| 2026-04-29 05:21 | -0.58318 | -78.86465 | 20637 ft | 432 kts | 34° |
| 2026-04-29 05:21 | -0.55794 | -78.84828 | 20775 ft | 433 kts | 33° |
| 2026-04-29 05:21 | -0.53259 | -78.83184 | 20913 ft | 435 kts | 34° |
| 2026-04-29 05:21 | -0.50724 | -78.81540 | 21052 ft | 435 kts | 34° |
| 2026-04-29 05:22 | -0.48178 | -78.79889 | 21185 ft | 436 kts | 34° |
| 2026-04-29 05:22 | -0.45632 | -78.78238 | 21307 ft | 437 kts | 34° |
| 2026-04-29 05:22 | -0.43082 | -78.76584 | 21400 ft | 438 kts | 34° |
| 2026-04-29 05:22 | -0.40525 | -78.74924 | 21532 ft | 439 kts | 34° |
| 2026-04-29 05:23 | -0.37961 | -78.73261 | 21636 ft | 440 kts | 34° |
| 2026-04-29 05:23 | -0.35392 | -78.71593 | 21717 ft | 441 kts | 34° |
| 2026-04-29 05:23 | -0.32848 | -78.69943 | 21859 ft | 441 kts | 34° |
| 2026-04-29 05:23 | -0.30268 | -78.68269 | 22005 ft | 442 kts | 34° |
| 2026-04-29 05:24 | -0.27684 | -78.66592 | 22133 ft | 442 kts | 34° |
| 2026-04-29 05:24 | -0.25102 | -78.64916 | 22308 ft | 443 kts | 34° |
| 2026-04-29 05:24 | -0.22514 | -78.63237 | 22450 ft | 444 kts | 34° |
| 2026-04-29 05:24 | -0.19924 | -78.61555 | 22568 ft | 445 kts | 33° |
| 2026-04-29 05:25 | -0.17315 | -78.59864 | 22703 ft | 446 kts | 34° |
| 2026-04-29 05:25 | -0.14709 | -78.58174 | 22861 ft | 447 kts | 34° |
| 2026-04-29 05:25 | -0.12095 | -78.56478 | 22984 ft | 448 kts | 34° |
| 2026-04-29 05:25 | -0.09479 | -78.54781 | 23145 ft | 448 kts | 34° |
| 2026-04-29 05:26 | -0.06856 | -78.53079 | 23253 ft | 449 kts | 34° |
| 2026-04-29 05:26 | -0.04264 | -78.51392 | 23353 ft | 450 kts | 34° |
| 2026-04-29 05:26 | -0.01693 | -78.49613 | 23446 ft | 450 kts | 37° |
| 2026-04-29 05:26 | 0.00838 | -78.47760 | 23286 ft | 451 kts | 38° |
| 2026-04-29 05:27 | 0.03347 | -78.45871 | 23399 ft | 452 kts | 38° |
| 2026-04-29 05:27 | 0.08365 | -78.42069 | 23621 ft | 453 kts | 38° |
| 2026-04-29 05:27 | 0.10884 | -78.40172 | 23715 ft | 454 kts | 38° |
| 2026-04-29 05:28 | 0.13413 | -78.38277 | 23812 ft | 455 kts | 38° |
| 2026-04-29 05:28 | 0.15953 | -78.36381 | 23885 ft | 456 kts | 38° |
| 2026-04-29 05:28 | 0.18496 | -78.34487 | 23963 ft | 456 kts | 38° |
| 2026-04-29 05:28 | 0.21044 | -78.32591 | 24029 ft | 457 kts | 38° |
| 2026-04-29 05:29 | 0.23599 | -78.30691 | 24125 ft | 457 kts | 38° |
| 2026-04-29 05:29 | 0.26156 | -78.28789 | 24219 ft | 458 kts | 38° |
| 2026-04-29 05:29 | 0.28712 | -78.26886 | 24302 ft | 459 kts | 38° |
| 2026-04-29 05:29 | 0.31271 | -78.24982 | 24404 ft | 459 kts | 38° |
| 2026-04-29 05:30 | 0.33839 | -78.23069 | 24464 ft | 460 kts | 38° |
| 2026-04-29 05:30 | 0.36410 | -78.21154 | 24553 ft | 461 kts | 38° |
| 2026-04-29 05:30 | 0.38979 | -78.19242 | 24645 ft | 461 kts | 38° |
| 2026-04-29 05:30 | 0.41553 | -78.17326 | 24725 ft | 462 kts | 38° |
| 2026-04-29 05:31 | 0.44126 | -78.15411 | 24817 ft | 462 kts | 38° |
| 2026-04-29 05:31 | 0.46678 | -78.13510 | 24877 ft | 463 kts | 38° |
| 2026-04-29 05:31 | 0.49259 | -78.11589 | 24962 ft | 463 kts | 38° |
| 2026-04-29 05:31 | 0.51849 | -78.09660 | 25040 ft | 464 kts | 38° |
| 2026-04-29 05:32 | 0.54440 | -78.07731 | 25117 ft | 464 kts | 38° |
| 2026-04-29 05:32 | 0.57035 | -78.05799 | 25202 ft | 465 kts | 38° |
| 2026-04-29 05:32 | 0.59630 | -78.03866 | 25261 ft | 466 kts | 38° |
| 2026-04-29 05:32 | 0.62237 | -78.01925 | 25341 ft | 466 kts | 38° |
| 2026-04-29 05:33 | 0.64842 | -77.99985 | 25391 ft | 467 kts | 38° |
| 2026-04-29 05:33 | 0.67447 | -77.98045 | 25490 ft | 467 kts | 38° |
| 2026-04-29 05:33 | 0.70052 | -77.96105 | 25555 ft | 468 kts | 38° |
| 2026-04-29 05:33 | 0.72661 | -77.94162 | 25679 ft | 468 kts | 38° |
| 2026-04-29 05:34 | 0.75281 | -77.92212 | 25723 ft | 469 kts | 38° |
| 2026-04-29 05:34 | 0.77899 | -77.90262 | 25779 ft | 470 kts | 38° |
| 2026-04-29 05:34 | 0.80442 | -77.88277 | 25844 ft | 470 kts | 42° |
| 2026-04-29 05:34 | 0.82918 | -77.86074 | 25929 ft | 470 kts | 43° |
| 2026-04-29 05:35 | 0.85326 | -77.83861 | 26005 ft | 470 kts | 44° |
| 2026-04-29 05:35 | 0.87715 | -77.81621 | 26061 ft | 472 kts | 44° |
| 2026-04-29 05:35 | 0.90066 | -77.79395 | 26419 ft | 472 kts | 45° |
| 2026-04-29 05:35 | 0.92450 | -77.77130 | 26489 ft | 473 kts | 45° |
| 2026-04-29 05:36 | 0.94841 | -77.74858 | 26582 ft | 473 kts | 44° |
| 2026-04-29 05:36 | 0.97228 | -77.72592 | 26634 ft | 473 kts | 45° |
| 2026-04-29 05:36 | 0.99616 | -77.70330 | 26698 ft | 474 kts | 44° |
| 2026-04-29 05:36 | 1.02011 | -77.68064 | 26729 ft | 474 kts | 45° |
| 2026-04-29 05:37 | 1.04410 | -77.65795 | 26778 ft | 475 kts | 45° |
| 2026-04-29 05:37 | 1.06813 | -77.63523 | 26794 ft | 475 kts | 44° |
| 2026-04-29 05:37 | 1.09218 | -77.61251 | 26821 ft | 476 kts | 44° |
| 2026-04-29 05:37 | 1.11623 | -77.58978 | 26870 ft | 476 kts | 44° |
| 2026-04-29 05:38 | 1.14038 | -77.56695 | 26791 ft | 480 kts | 44° |
| 2026-04-29 05:38 | 1.16470 | -77.54395 | 26791 ft | 481 kts | 44° |
| 2026-04-29 05:38 | 1.18870 | -77.52126 | 26852 ft | 481 kts | 44° |
| 2026-04-29 05:38 | 1.21306 | -77.49824 | 26924 ft | 482 kts | 44° |
| 2026-04-29 05:39 | 1.23739 | -77.47524 | 27007 ft | 482 kts | 44° |
| 2026-04-29 05:39 | 1.26180 | -77.45216 | 27090 ft | 482 kts | 44° |
| 2026-04-29 05:39 | 1.28622 | -77.42908 | 27164 ft | 483 kts | 44° |
| 2026-04-29 05:39 | 1.31064 | -77.40598 | 27235 ft | 483 kts | 44° |
| 2026-04-29 05:40 | 1.33513 | -77.38282 | 27308 ft | 484 kts | 44° |
| 2026-04-29 05:40 | 1.35959 | -77.35969 | 27394 ft | 484 kts | 44° |
| 2026-04-29 05:40 | 1.38406 | -77.33654 | 27435 ft | 485 kts | 44° |
| 2026-04-29 05:40 | 1.40861 | -77.31333 | 27378 ft | 485 kts | 44° |
| 2026-04-29 05:41 | 1.43288 | -77.29037 | 27436 ft | 486 kts | 44° |
| 2026-04-29 05:41 | 1.45743 | -77.26715 | 27490 ft | 487 kts | 44° |
| 2026-04-29 05:41 | 1.48206 | -77.24386 | 27560 ft | 487 kts | 44° |
| 2026-04-29 05:41 | 1.50672 | -77.22054 | 27589 ft | 488 kts | 44° |
| 2026-04-29 05:42 | 1.53136 | -77.19723 | 27675 ft | 488 kts | 44° |
| 2026-04-29 05:42 | 1.55599 | -77.17394 | 27730 ft | 488 kts | 44° |
| 2026-04-29 05:42 | 1.58071 | -77.15057 | 27783 ft | 489 kts | 44° |
| 2026-04-29 05:42 | 1.60543 | -77.12718 | 27825 ft | 489 kts | 44° |
| 2026-04-29 05:43 | 1.63015 | -77.10380 | 27891 ft | 490 kts | 44° |
| 2026-04-29 05:43 | 1.65490 | -77.08038 | 27943 ft | 490 kts | 44° |
| 2026-04-29 05:43 | 1.70448 | -77.03347 | 28066 ft | 491 kts | 44° |
| 2026-04-29 05:44 | 1.75415 | -76.98648 | 28165 ft | 492 kts | 44° |
| 2026-04-29 05:44 | 1.80358 | -76.93971 | 28261 ft | 493 kts | 44° |
| 2026-04-29 05:45 | 1.85345 | -76.89254 | 28376 ft | 494 kts | 44° |
| 2026-04-29 05:45 | 1.90336 | -76.84531 | 28518 ft | 493 kts | 44° |
| 2026-04-29 05:46 | 1.92826 | -76.82175 | 28619 ft | 492 kts | 45° |
| 2026-04-29 05:46 | 1.95317 | -76.79818 | 28611 ft | 493 kts | 45° |
| 2026-04-29 05:46 | 2.00306 | -76.75095 | 28758 ft | 494 kts | 45° |
| 2026-04-29 05:47 | 2.05299 | -76.70368 | 28857 ft | 495 kts | 45° |
| 2026-04-29 05:47 | 2.10308 | -76.65627 | 28933 ft | 495 kts | 44° |
| 2026-04-29 05:48 | 2.15282 | -76.60918 | 29041 ft | 496 kts | 45° |
| 2026-04-29 05:48 | 2.20296 | -76.56171 | 29178 ft | 496 kts | 45° |
| 2026-04-29 05:49 | 2.25312 | -76.51421 | 29153 ft | 500 kts | 44° |
| 2026-04-29 05:49 | 2.30352 | -76.46648 | 29451 ft | 495 kts | 45° |
| 2026-04-29 05:50 | 2.35358 | -76.41908 | 29550 ft | 496 kts | 45° |
| 2026-04-29 05:50 | 2.40372 | -76.37158 | 29647 ft | 496 kts | 44° |
| 2026-04-29 05:51 | 2.45377 | -76.32416 | 29768 ft | 495 kts | 44° |
| 2026-04-29 05:51 | 2.50382 | -76.27673 | 29875 ft | 495 kts | 45° |
| 2026-04-29 05:52 | 2.55352 | -76.22964 | 30003 ft | 495 kts | 44° |
| 2026-04-29 05:52 | 2.60358 | -76.18221 | 30106 ft | 496 kts | 44° |
| 2026-04-29 05:53 | 2.62876 | -76.15835 | 29932 ft | 501 kts | 45° |
| 2026-04-29 05:53 | 2.65409 | -76.13434 | 29974 ft | 502 kts | 44° |
| 2026-04-29 05:53 | 2.67926 | -76.11049 | 30287 ft | 495 kts | 44° |
| 2026-04-29 05:53 | 2.70423 | -76.08683 | 30427 ft | 493 kts | 44° |
| 2026-04-29 05:54 | 2.75414 | -76.03952 | 30499 ft | 494 kts | 44° |
| 2026-04-29 05:54 | 2.79561 | -76.00020 | 30603 ft | 494 kts | 44° |
| 2026-04-29 05:55 | 2.84546 | -75.95293 | 30769 ft | 493 kts | 44° |
| 2026-04-29 05:55 | 2.89528 | -75.90569 | 30885 ft | 493 kts | 44° |
| 2026-04-29 05:56 | 2.94507 | -75.85847 | 31026 ft | 493 kts | 44° |
| 2026-04-29 05:56 | 2.99493 | -75.81118 | 31036 ft | 496 kts | 44° |
| 2026-04-29 05:57 | 3.04469 | -75.76397 | 31164 ft | 494 kts | 44° |
| 2026-04-29 05:57 | 3.06964 | -75.74029 | 31296 ft | 493 kts | 44° |
| 2026-04-29 05:57 | 3.09452 | -75.71670 | 31383 ft | 493 kts | 45° |
| 2026-04-29 05:58 | 3.14435 | -75.66940 | 31532 ft | 493 kts | 44° |
| 2026-04-29 05:58 | 3.19407 | -75.62222 | 31625 ft | 493 kts | 44° |
| 2026-04-29 05:59 | 3.24382 | -75.57499 | 31780 ft | 492 kts | 44° |
| 2026-04-29 05:59 | 3.29351 | -75.52783 | 31943 ft | 492 kts | 44° |
| 2026-04-29 06:00 | 3.34286 | -75.48098 | 32076 ft | 491 kts | 44° |
| 2026-04-29 06:00 | 3.39244 | -75.43391 | 32264 ft | 491 kts | 45° |
| 2026-04-29 06:01 | 3.41720 | -75.41040 | 32382 ft | 490 kts | 44° |
| 2026-04-29 06:01 | 3.44182 | -75.38702 | 32555 ft | 487 kts | 44° |
| 2026-04-29 06:01 | 3.49102 | -75.34028 | 32702 ft | 487 kts | 44° |
| 2026-04-29 06:02 | 3.54023 | -75.29352 | 32865 ft | 487 kts | 44° |
| 2026-04-29 06:02 | 3.58940 | -75.24681 | 33049 ft | 487 kts | 44° |
| 2026-04-29 06:03 | 3.63850 | -75.20014 | 33232 ft | 486 kts | 44° |
| 2026-04-29 06:03 | 3.68761 | -75.15347 | 33402 ft | 486 kts | 44° |
| 2026-04-29 06:04 | 3.73682 | -75.10669 | 33452 ft | 488 kts | 44° |
| 2026-04-29 06:04 | 3.76142 | -75.08330 | 33555 ft | 488 kts | 44° |
| 2026-04-29 06:04 | 3.78602 | -75.05991 | 33677 ft | 487 kts | 44° |
| 2026-04-29 06:05 | 3.83500 | -75.01333 | 33757 ft | 489 kts | 44° |
| 2026-04-29 06:05 | 3.88428 | -74.96647 | 33928 ft | 488 kts | 44° |
| 2026-04-29 06:06 | 3.93362 | -74.91956 | 33932 ft | 489 kts | 44° |
| 2026-04-29 06:06 | 3.98301 | -74.87260 | 33914 ft | 489 kts | 44° |
| 2026-04-29 06:07 | 4.03238 | -74.82564 | 33917 ft | 489 kts | 44° |
| 2026-04-29 06:07 | 4.08172 | -74.77868 | 33945 ft | 490 kts | 44° |
| 2026-04-29 06:08 | 4.13094 | -74.73183 | 33932 ft | 491 kts | 44° |
| 2026-04-29 06:08 | 4.18074 | -74.68441 | 33932 ft | 491 kts | 44° |
| 2026-04-29 06:09 | 4.22998 | -74.63752 | 33976 ft | 491 kts | 44° |
| 2026-04-29 06:09 | 4.27951 | -74.59035 | 33956 ft | 491 kts | 44° |
| 2026-04-29 06:10 | 4.32904 | -74.54317 | 33959 ft | 491 kts | 44° |
| 2026-04-29 06:10 | 4.37863 | -74.49592 | 34021 ft | 491 kts | 44° |
| 2026-04-29 06:11 | 4.42789 | -74.44898 | 34009 ft | 492 kts | 44° |
| 2026-04-29 06:11 | 4.47769 | -74.40151 | 34038 ft | 494 kts | 44° |
| 2026-04-29 06:12 | 4.52753 | -74.35399 | 34164 ft | 494 kts | 44° |
| 2026-04-29 06:12 | 4.57736 | -74.30648 | 34228 ft | 495 kts | 44° |
| 2026-04-29 06:13 | 4.62727 | -74.25888 | 34292 ft | 495 kts | 44° |
| 2026-04-29 06:13 | 4.67714 | -74.21131 | 34346 ft | 495 kts | 44° |
| 2026-04-29 06:14 | 4.72709 | -74.16366 | 34348 ft | 495 kts | 44° |
| 2026-04-29 06:14 | 4.77667 | -74.11634 | 34363 ft | 495 kts | 44° |
| 2026-04-29 06:15 | 4.82676 | -74.06850 | 34372 ft | 499 kts | 44° |
| 2026-04-29 06:15 | 4.85190 | -74.04449 | 34106 ft | 500 kts | 44° |
| 2026-04-29 06:15 | 4.87711 | -74.02043 | 34120 ft | 500 kts | 44° |
| 2026-04-29 06:16 | 4.92745 | -73.97238 | 34114 ft | 500 kts | 44° |
| 2026-04-29 06:16 | 4.97800 | -73.92412 | 34133 ft | 501 kts | 44° |
| 2026-04-29 06:17 | 5.02841 | -73.87596 | 34123 ft | 501 kts | 44° |
| 2026-04-29 06:17 | 5.07885 | -73.82776 | 34125 ft | 501 kts | 44° |
| 2026-04-29 06:18 | 5.12929 | -73.77955 | 34126 ft | 501 kts | 44° |
| 2026-04-29 06:18 | 5.17989 | -73.73118 | 34127 ft | 503 kts | 44° |
| 2026-04-29 06:19 | 5.23027 | -73.68301 | 34127 ft | 504 kts | 44° |
| 2026-04-29 06:19 | 5.28106 | -73.63444 | 34120 ft | 503 kts | 44° |
| 2026-04-29 06:20 | 5.33160 | -73.58609 | 34122 ft | 501 kts | 44° |
| 2026-04-29 06:20 | 5.38204 | -73.53783 | 34123 ft | 501 kts | 44° |
| 2026-04-29 06:21 | 5.43250 | -73.48954 | 34140 ft | 501 kts | 44° |
| 2026-04-29 06:21 | 5.48261 | -73.44156 | 34129 ft | 501 kts | 44° |
| 2026-04-29 06:22 | 5.53312 | -73.39319 | 34123 ft | 502 kts | 44° |
| 2026-04-29 06:22 | 5.58374 | -73.34471 | 34117 ft | 503 kts | 44° |
| 2026-04-29 06:23 | 5.63432 | -73.29625 | 34124 ft | 503 kts | 44° |
| 2026-04-29 06:23 | 5.68484 | -73.24784 | 34129 ft | 502 kts | 44° |
| 2026-04-29 06:24 | 5.73536 | -73.19941 | 34123 ft | 502 kts | 44° |
| 2026-04-29 06:24 | 5.78589 | -73.15097 | 34120 ft | 501 kts | 44° |
| 2026-04-29 06:25 | 5.83630 | -73.10263 | 34098 ft | 501 kts | 44° |
| 2026-04-29 06:25 | 5.88663 | -73.05434 | 34117 ft | 505 kts | 44° |
| 2026-04-29 06:26 | 5.93752 | -73.00550 | 34116 ft | 506 kts | 44° |
| 2026-04-29 06:26 | 5.98835 | -72.95672 | 34102 ft | 505 kts | 44° |
| 2026-04-29 06:27 | 6.03914 | -72.90797 | 34119 ft | 504 kts | 43° |
| 2026-04-29 06:27 | 6.08982 | -72.85931 | 34117 ft | 503 kts | 43° |
| 2026-04-29 06:28 | 6.14036 | -72.81076 | 34118 ft | 503 kts | 43° |
| 2026-04-29 06:28 | 6.19091 | -72.76219 | 34122 ft | 503 kts | 43° |
| 2026-04-29 06:29 | 6.24140 | -72.71366 | 34118 ft | 502 kts | 43° |
| 2026-04-29 06:29 | 6.29186 | -72.66515 | 34138 ft | 501 kts | 43° |
| 2026-04-29 06:30 | 6.36711 | -72.59279 | 34133 ft | 502 kts | 43° |
| 2026-04-29 06:31 | 6.41753 | -72.54428 | 34137 ft | 501 kts | 43° |
| 2026-04-29 06:31 | 6.46794 | -72.49577 | 34158 ft | 501 kts | 43° |
| 2026-04-29 06:32 | 6.51832 | -72.44727 | 34161 ft | 501 kts | 43° |
| 2026-04-29 06:32 | 6.56832 | -72.39913 | 34156 ft | 501 kts | 44° |
| 2026-04-29 06:33 | 6.61863 | -72.35067 | 34161 ft | 500 kts | 44° |
| 2026-04-29 06:33 | 6.66900 | -72.30215 | 34138 ft | 500 kts | 44° |
| 2026-04-29 06:34 | 6.71923 | -72.25373 | 34100 ft | 500 kts | 43° |
| 2026-04-29 06:34 | 6.76946 | -72.20531 | 34106 ft | 500 kts | 43° |
| 2026-04-29 06:35 | 6.81962 | -72.15695 | 34056 ft | 499 kts | 43° |
| 2026-04-29 06:35 | 6.86979 | -72.10855 | 33992 ft | 499 kts | 43° |
| 2026-04-29 06:36 | 6.91968 | -72.06041 | 33964 ft | 500 kts | 43° |
| 2026-04-29 06:36 | 6.96985 | -72.01198 | 33937 ft | 500 kts | 43° |
| 2026-04-29 06:37 | 7.01992 | -71.96339 | 33920 ft | 499 kts | 45° |
| 2026-04-29 06:37 | 7.06782 | -71.91271 | 33988 ft | 500 kts | 47° |
| 2026-04-29 06:38 | 7.11477 | -71.86098 | 33992 ft | 501 kts | 47° |
| 2026-04-29 06:38 | 7.16184 | -71.80930 | 33974 ft | 501 kts | 47° |
| 2026-04-29 06:39 | 7.20916 | -71.75773 | 33977 ft | 501 kts | 46° |
| 2026-04-29 06:39 | 7.25622 | -71.70661 | 33970 ft | 501 kts | 47° |
| 2026-04-29 06:40 | 7.30362 | -71.65512 | 33967 ft | 501 kts | 47° |
| 2026-04-29 06:40 | 7.35102 | -71.60360 | 33967 ft | 501 kts | 47° |
| 2026-04-29 06:41 | 7.39837 | -71.55210 | 33958 ft | 501 kts | 46° |
| 2026-04-29 06:41 | 7.44573 | -71.50057 | 33962 ft | 501 kts | 46° |
| 2026-04-29 06:42 | 7.49308 | -71.44904 | 33963 ft | 501 kts | 46° |
| 2026-04-29 06:42 | 7.54042 | -71.39751 | 33963 ft | 501 kts | 46° |
| 2026-04-29 06:43 | 7.58782 | -71.34587 | 33962 ft | 501 kts | 46° |
| 2026-04-29 06:43 | 7.62715 | -71.30303 | 33981 ft | 501 kts | 46° |
| 2026-04-29 06:44 | 7.68218 | -71.24305 | 33967 ft | 501 kts | 46° |
| 2026-04-29 06:44 | 7.72181 | -71.19986 | 33968 ft | 501 kts | 46° |
| 2026-04-29 06:45 | 7.76910 | -71.14829 | 33971 ft | 501 kts | 46° |
| 2026-04-29 06:45 | 7.81642 | -71.09667 | 33971 ft | 501 kts | 46° |
| 2026-04-29 06:46 | 7.86371 | -71.04505 | 33970 ft | 501 kts | 46° |
| 2026-04-29 06:46 | 7.91075 | -70.99370 | 33978 ft | 502 kts | 46° |
| 2026-04-29 06:47 | 7.95832 | -70.94173 | 33975 ft | 506 kts | 46° |
| 2026-04-29 06:47 | 8.00626 | -70.88933 | 33977 ft | 508 kts | 46° |
| 2026-04-29 06:48 | 8.05415 | -70.83701 | 33982 ft | 507 kts | 46° |
| 2026-04-29 06:48 | 8.10194 | -70.78477 | 33978 ft | 507 kts | 46° |
| 2026-04-29 06:49 | 8.14979 | -70.73245 | 33955 ft | 506 kts | 46° |
| 2026-04-29 06:49 | 8.19760 | -70.68014 | 33977 ft | 507 kts | 46° |
| 2026-04-29 06:50 | 8.24542 | -70.62779 | 33980 ft | 507 kts | 46° |
| 2026-04-29 06:50 | 8.29304 | -70.57564 | 33954 ft | 509 kts | 46° |
| 2026-04-29 06:51 | 8.34108 | -70.52303 | 33972 ft | 510 kts | 46° |
| 2026-04-29 06:51 | 8.38923 | -70.47026 | 33950 ft | 511 kts | 46° |
| 2026-04-29 06:52 | 8.43739 | -70.41746 | 33964 ft | 511 kts | 46° |
| 2026-04-29 06:52 | 8.48564 | -70.36455 | 33967 ft | 511 kts | 46° |
| 2026-04-29 06:53 | 8.53381 | -70.31169 | 33952 ft | 511 kts | 46° |
| 2026-04-29 06:53 | 8.58194 | -70.25886 | 33964 ft | 510 kts | 46° |
| 2026-04-29 06:54 | 8.62945 | -70.20644 | 33962 ft | 508 kts | 46° |
| 2026-04-29 06:54 | 8.67658 | -70.15293 | 33950 ft | 510 kts | 47° |
| 2026-04-29 06:55 | 8.72359 | -70.09908 | 33965 ft | 511 kts | 47° |
| 2026-04-29 06:55 | 8.77067 | -70.04522 | 33947 ft | 511 kts | 47° |
| 2026-04-29 06:56 | 8.81784 | -69.99137 | 33945 ft | 511 kts | 47° |
| 2026-04-29 06:56 | 8.86499 | -69.93757 | 33962 ft | 511 kts | 47° |
| 2026-04-29 06:57 | 8.91212 | -69.88375 | 33953 ft | 510 kts | 47° |
| 2026-04-29 06:57 | 8.95901 | -69.83020 | 33949 ft | 507 kts | 47° |
| 2026-04-29 06:58 | 9.00550 | -69.77707 | 33948 ft | 508 kts | 47° |
| 2026-04-29 06:58 | 9.05231 | -69.72356 | 33949 ft | 508 kts | 47° |
| 2026-04-29 06:59 | 9.09916 | -69.66997 | 33970 ft | 508 kts | 47° |
| 2026-04-29 06:59 | 9.14604 | -69.61634 | 33948 ft | 508 kts | 47° |
| 2026-04-29 07:00 | 9.19286 | -69.56274 | 33972 ft | 508 kts | 47° |
| 2026-04-29 07:00 | 9.23938 | -69.50946 | 33956 ft | 508 kts | 47° |
| 2026-04-29 07:01 | 9.28616 | -69.45586 | 33955 ft | 508 kts | 47° |
| 2026-04-29 07:01 | 9.33299 | -69.40219 | 33956 ft | 507 kts | 47° |
| 2026-04-29 07:02 | 9.37971 | -69.34862 | 33955 ft | 507 kts | 47° |
| 2026-04-29 07:02 | 9.42644 | -69.29501 | 33955 ft | 507 kts | 47° |
| 2026-04-29 07:03 | 9.47311 | -69.24145 | 33944 ft | 507 kts | 47° |
| 2026-04-29 07:03 | 9.51952 | -69.18815 | 33956 ft | 507 kts | 47° |
| 2026-04-29 07:04 | 9.56626 | -69.13446 | 33949 ft | 507 kts | 47° |
| 2026-04-29 07:04 | 9.61289 | -69.08087 | 33940 ft | 505 kts | 47° |
| 2026-04-29 07:05 | 9.65940 | -69.02741 | 33957 ft | 505 kts | 47° |
| 2026-04-29 07:05 | 9.70589 | -68.97400 | 33955 ft | 505 kts | 47° |
| 2026-04-29 07:06 | 9.75238 | -68.92057 | 33967 ft | 505 kts | 47° |
| 2026-04-29 07:06 | 9.79857 | -68.86747 | 33965 ft | 505 kts | 47° |
| 2026-04-29 07:07 | 9.84501 | -68.81404 | 33966 ft | 503 kts | 47° |
| 2026-04-29 07:07 | 9.89133 | -68.76074 | 33987 ft | 501 kts | 48° |
| 2026-04-29 07:08 | 9.93735 | -68.70775 | 33986 ft | 500 kts | 48° |
| 2026-04-29 07:08 | 9.98330 | -68.65481 | 33988 ft | 499 kts | 48° |
| 2026-04-29 07:09 | 10.02895 | -68.60220 | 34001 ft | 499 kts | 48° |
| 2026-04-29 07:09 | 10.07490 | -68.54935 | 34004 ft | 500 kts | 48° |
| 2026-04-29 07:10 | 10.12090 | -68.49648 | 34006 ft | 500 kts | 48° |
| 2026-04-29 07:10 | 10.16694 | -68.44354 | 34004 ft | 500 kts | 48° |
| 2026-04-29 07:11 | 10.21292 | -68.39063 | 34002 ft | 500 kts | 48° |
| 2026-04-29 07:11 | 10.25890 | -68.33769 | 33996 ft | 500 kts | 48° |
| 2026-04-29 07:12 | 10.30496 | -68.28464 | 33991 ft | 500 kts | 48° |
| 2026-04-29 07:12 | 10.35065 | -68.23198 | 33990 ft | 500 kts | 48° |
| 2026-04-29 07:13 | 10.39658 | -68.17902 | 33987 ft | 500 kts | 48° |
| 2026-04-29 07:13 | 10.44257 | -68.12597 | 33990 ft | 500 kts | 48° |
| 2026-04-29 07:14 | 10.48854 | -68.07294 | 33992 ft | 500 kts | 48° |
| 2026-04-29 07:14 | 10.53469 | -68.01996 | 33979 ft | 501 kts | 47° |
| 2026-04-29 07:15 | 10.58109 | -67.96678 | 33977 ft | 503 kts | 47° |
| 2026-04-29 07:15 | 10.62748 | -67.91358 | 33980 ft | 503 kts | 47° |
| 2026-04-29 07:16 | 10.67370 | -67.86013 | 33975 ft | 503 kts | 48° |
| 2026-04-29 07:16 | 10.71933 | -67.80605 | 33974 ft | 503 kts | 49° |
| 2026-04-29 07:17 | 10.76444 | -67.75229 | 33966 ft | 503 kts | 49° |
| 2026-04-29 07:17 | 10.80994 | -67.69815 | 33966 ft | 503 kts | 49° |
| 2026-04-29 07:18 | 10.85543 | -67.64409 | 33964 ft | 502 kts | 48° |
| 2026-04-29 07:18 | 10.90084 | -67.59013 | 33967 ft | 501 kts | 48° |
| 2026-04-29 07:19 | 10.94621 | -67.53617 | 33967 ft | 501 kts | 48° |
| 2026-04-29 07:19 | 10.99150 | -67.48221 | 33966 ft | 501 kts | 49° |
| 2026-04-29 07:20 | 11.03581 | -67.42749 | 33967 ft | 501 kts | 50° |
| 2026-04-29 07:20 | 11.07941 | -67.37261 | 33967 ft | 501 kts | 50° |
| 2026-04-29 07:21 | 11.12327 | -67.31743 | 33966 ft | 501 kts | 50° |
| 2026-04-29 07:21 | 11.16717 | -67.26236 | 33971 ft | 501 kts | 50° |
| 2026-04-29 07:22 | 11.21112 | -67.20730 | 33974 ft | 501 kts | 50° |
| 2026-04-29 07:22 | 11.25502 | -67.15223 | 33972 ft | 501 kts | 50° |
| 2026-04-29 07:23 | 11.29865 | -67.09742 | 33968 ft | 501 kts | 50° |
| 2026-04-29 07:23 | 11.34249 | -67.04229 | 33972 ft | 501 kts | 50° |
| 2026-04-29 07:24 | 11.38636 | -66.98712 | 33974 ft | 501 kts | 50° |
| 2026-04-29 07:24 | 11.43019 | -66.93196 | 33974 ft | 500 kts | 50° |
| 2026-04-29 07:25 | 11.47407 | -66.87677 | 33973 ft | 502 kts | 50° |
| 2026-04-29 07:25 | 11.51807 | -66.82144 | 33974 ft | 503 kts | 50° |
| 2026-04-29 07:26 | 11.56215 | -66.76597 | 33975 ft | 503 kts | 50° |
| 2026-04-29 07:26 | 11.60618 | -66.71048 | 33977 ft | 503 kts | 50° |
| 2026-04-29 07:27 | 11.65018 | -66.65494 | 33975 ft | 503 kts | 50° |
| 2026-04-29 07:27 | 11.69386 | -66.59975 | 33979 ft | 503 kts | 50° |
| 2026-04-29 07:28 | 11.73783 | -66.54423 | 33981 ft | 503 kts | 49° |
| 2026-04-29 07:28 | 11.78187 | -66.48863 | 33980 ft | 503 kts | 49° |
| 2026-04-29 07:29 | 11.82591 | -66.43299 | 33980 ft | 504 kts | 49° |
| 2026-04-29 07:29 | 11.86993 | -66.37734 | 33982 ft | 504 kts | 49° |
| 2026-04-29 07:30 | 11.91394 | -66.32167 | 33980 ft | 504 kts | 49° |
| 2026-04-29 07:30 | 11.95791 | -66.26602 | 33982 ft | 504 kts | 49° |
| 2026-04-29 07:31 | 12.02361 | -66.18280 | 33983 ft | 503 kts | 49° |
| 2026-04-29 07:31 | 12.06747 | -66.12721 | 33984 ft | 503 kts | 49° |
| 2026-04-29 07:32 | 12.11142 | -66.07148 | 33986 ft | 504 kts | 49° |
| 2026-04-29 07:32 | 12.15537 | -66.01570 | 33983 ft | 504 kts | 49° |
| 2026-04-29 07:33 | 12.19937 | -65.95983 | 33985 ft | 504 kts | 49° |
| 2026-04-29 07:33 | 12.24325 | -65.90408 | 33986 ft | 503 kts | 49° |
| 2026-04-29 07:34 | 12.27973 | -65.85771 | 33985 ft | 502 kts | 49° |
| 2026-04-29 07:34 | 12.32352 | -65.80202 | 33984 ft | 502 kts | 49° |
| 2026-04-29 07:35 | 12.36726 | -65.74636 | 33991 ft | 503 kts | 49° |
| 2026-04-29 07:35 | 12.41114 | -65.69050 | 33988 ft | 504 kts | 49° |
| 2026-04-29 07:36 | 12.45504 | -65.63457 | 33989 ft | 504 kts | 49° |
| 2026-04-29 07:36 | 12.49888 | -65.57867 | 33986 ft | 503 kts | 49° |
| 2026-04-29 07:37 | 12.54256 | -65.52295 | 33990 ft | 501 kts | 49° |
| 2026-04-29 07:37 | 12.58620 | -65.46724 | 33991 ft | 501 kts | 49° |
| 2026-04-29 07:38 | 12.62984 | -65.41151 | 33992 ft | 502 kts | 49° |
| 2026-04-29 07:38 | 12.67352 | -65.35569 | 33996 ft | 502 kts | 49° |
| 2026-04-29 07:39 | 12.71722 | -65.29981 | 33996 ft | 503 kts | 49° |
| 2026-04-29 07:39 | 12.76066 | -65.24424 | 33995 ft | 503 kts | 49° |
| 2026-04-29 07:40 | 12.80435 | -65.18830 | 33993 ft | 503 kts | 49° |
| 2026-04-29 07:40 | 12.84814 | -65.13220 | 33993 ft | 503 kts | 49° |
| 2026-04-29 07:41 | 12.89182 | -65.07621 | 33993 ft | 503 kts | 49° |
| 2026-04-29 07:41 | 12.93556 | -65.02010 | 34000 ft | 503 kts | 49° |
| 2026-04-29 07:42 | 12.97900 | -64.96436 | 33993 ft | 504 kts | 49° |
| 2026-04-29 07:42 | 13.02287 | -64.90802 | 33995 ft | 504 kts | 49° |
| 2026-04-29 07:43 | 13.06663 | -64.85178 | 33997 ft | 504 kts | 49° |
| 2026-04-29 07:43 | 13.11035 | -64.79556 | 33993 ft | 504 kts | 49° |
| 2026-04-29 07:44 | 13.15406 | -64.73932 | 33998 ft | 504 kts | 49° |
| 2026-04-29 07:44 | 13.19751 | -64.68338 | 33996 ft | 504 kts | 49° |
| 2026-04-29 07:45 | 13.24125 | -64.62701 | 34002 ft | 504 kts | 49° |
| 2026-04-29 07:45 | 13.28490 | -64.57070 | 33997 ft | 504 kts | 49° |
| 2026-04-29 07:46 | 13.32853 | -64.51437 | 33997 ft | 504 kts | 49° |
| 2026-04-29 07:46 | 13.37218 | -64.45800 | 34004 ft | 504 kts | 49° |
| 2026-04-29 07:47 | 13.41581 | -64.40161 | 34005 ft | 504 kts | 49° |
| 2026-04-29 07:47 | 13.45943 | -64.34522 | 34001 ft | 504 kts | 49° |
| 2026-04-29 07:48 | 13.50277 | -64.28917 | 34007 ft | 504 kts | 49° |
| 2026-04-29 07:48 | 13.54647 | -64.23261 | 34004 ft | 506 kts | 49° |
| 2026-04-29 07:49 | 13.59026 | -64.17589 | 34010 ft | 506 kts | 49° |
| 2026-04-29 07:49 | 13.63603 | -64.12115 | 34010 ft | 503 kts | 43° |
| 2026-04-29 07:50 | 13.68631 | -64.07102 | 33999 ft | 503 kts | 41° |
| 2026-04-29 07:50 | 13.73738 | -64.02179 | 34003 ft | 503 kts | 40° |
| 2026-04-29 07:51 | 13.78862 | -63.97259 | 34007 ft | 503 kts | 40° |
| 2026-04-29 07:51 | 13.83938 | -63.92366 | 34010 ft | 504 kts | 41° |
| 2026-04-29 07:52 | 13.89052 | -63.87422 | 34002 ft | 504 kts | 41° |
| 2026-04-29 07:52 | 13.94163 | -63.82474 | 34009 ft | 504 kts | 41° |
| 2026-04-29 07:53 | 13.99270 | -63.77528 | 34004 ft | 504 kts | 41° |
| 2026-04-29 07:53 | 14.04391 | -63.72565 | 34012 ft | 504 kts | 41° |
| 2026-04-29 07:54 | 14.09505 | -63.67606 | 34015 ft | 505 kts | 41° |
| 2026-04-29 07:54 | 14.14596 | -63.62667 | 34014 ft | 506 kts | 41° |
| 2026-04-29 07:55 | 14.19722 | -63.57690 | 34013 ft | 506 kts | 41° |
| 2026-04-29 07:55 | 14.24857 | -63.52702 | 34008 ft | 506 kts | 41° |
| 2026-04-29 07:56 | 14.29981 | -63.47720 | 34015 ft | 506 kts | 41° |
| 2026-04-29 07:56 | 14.35103 | -63.42738 | 34015 ft | 506 kts | 41° |
| 2026-04-29 07:57 | 14.40240 | -63.37737 | 34017 ft | 508 kts | 41° |
| 2026-04-29 07:57 | 14.45386 | -63.32725 | 34021 ft | 509 kts | 41° |
| 2026-04-29 07:58 | 14.50534 | -63.27706 | 34021 ft | 509 kts | 41° |
| 2026-04-29 07:58 | 14.55683 | -63.22684 | 34018 ft | 509 kts | 41° |
| 2026-04-29 07:59 | 14.60826 | -63.17663 | 34018 ft | 509 kts | 41° |
| 2026-04-29 07:59 | 14.65971 | -63.12638 | 34024 ft | 509 kts | 41° |
| 2026-04-29 08:00 | 14.71093 | -63.07633 | 34027 ft | 512 kts | 41° |
| 2026-04-29 08:00 | 14.76271 | -63.02569 | 34027 ft | 512 kts | 41° |
| 2026-04-29 08:01 | 14.81447 | -62.97502 | 34017 ft | 512 kts | 41° |
| 2026-04-29 08:01 | 14.86620 | -62.92435 | 34010 ft | 512 kts | 41° |
| 2026-04-29 08:02 | 14.91791 | -62.87367 | 34025 ft | 512 kts | 41° |
| 2026-04-29 08:02 | 14.96966 | -62.82291 | 34011 ft | 512 kts | 41° |
| 2026-04-29 08:03 | 15.02145 | -62.77208 | 34020 ft | 514 kts | 41° |
| 2026-04-29 08:03 | 15.07304 | -62.72142 | 34022 ft | 514 kts | 41° |
| 2026-04-29 08:04 | 15.12490 | -62.67045 | 34022 ft | 514 kts | 41° |
| 2026-04-29 08:04 | 15.17676 | -62.61944 | 34027 ft | 514 kts | 41° |
| 2026-04-29 08:05 | 15.22866 | -62.56835 | 34034 ft | 514 kts | 41° |
| 2026-04-29 08:05 | 15.28052 | -62.51727 | 34012 ft | 515 kts | 41° |
| 2026-04-29 08:06 | 15.33245 | -62.46611 | 34018 ft | 516 kts | 41° |
| 2026-04-29 08:06 | 15.38443 | -62.41483 | 34021 ft | 516 kts | 41° |
| 2026-04-29 08:07 | 15.43606 | -62.36387 | 34024 ft | 516 kts | 41° |
| 2026-04-29 08:07 | 15.48801 | -62.31254 | 34021 ft | 516 kts | 41° |
| 2026-04-29 08:08 | 15.53999 | -62.26116 | 34020 ft | 516 kts | 41° |
| 2026-04-29 08:08 | 15.59199 | -62.20972 | 34018 ft | 517 kts | 41° |
| 2026-04-29 08:09 | 15.64410 | -62.15814 | 34022 ft | 518 kts | 41° |
| 2026-04-29 08:09 | 15.69630 | -62.10643 | 34028 ft | 518 kts | 41° |